createdAt,value
2022-12-31T00:00:28.042Z,37.66
2022-12-31T00:00:58.015Z,37.64
2022-12-31T00:01:28.108Z,37.66
2022-12-31T00:01:58.338Z,37.68
2022-12-31T00:02:28.425Z,37.68
2022-12-31T00:02:58.494Z,37.71
2022-12-31T00:03:28.515Z,37.69
2022-12-31T00:03:58.306Z,37.72
2022-12-31T00:04:28.400Z,37.69
2022-12-31T00:04:58.483Z,37.68
2022-12-31T00:05:28.567Z,37.67
2022-12-31T00:05:58.660Z,37.65
2022-12-31T00:06:28.757Z,37.70
2022-12-31T00:06:58.821Z,37.69
2022-12-31T00:07:28.898Z,37.67
2022-12-31T00:07:58.980Z,37.69
2022-12-31T00:08:29.078Z,37.60
2022-12-31T00:08:59.155Z,37.73
2022-12-31T00:09:29.241Z,37.73
2022-12-31T00:09:59.319Z,37.75
2022-12-31T00:10:29.401Z,37.70
2022-12-31T00:10:59.483Z,37.70
2022-12-31T00:11:29.576Z,37.67
2022-12-31T00:11:59.681Z,37.68
2022-12-31T00:12:29.733Z,37.61
2022-12-31T00:12:59.827Z,37.68
2022-12-31T00:13:29.949Z,37.71
2022-12-31T00:14:00.042Z,37.62
2022-12-31T00:14:30.133Z,37.67
2022-12-31T00:15:00.191Z,37.68
2022-12-31T00:15:30.299Z,37.65
2022-12-31T00:16:00.363Z,37.65
2022-12-31T00:16:30.473Z,37.68
2022-12-31T00:17:00.634Z,37.71
2022-12-31T00:17:30.609Z,37.68
2022-12-31T00:18:00.782Z,37.73
2022-12-31T00:18:30.722Z,37.74
2022-12-31T00:19:00.844Z,37.70
2022-12-31T00:19:30.831Z,37.70
2022-12-31T00:20:00.923Z,37.71
2022-12-31T00:20:31.002Z,37.73
2022-12-31T00:21:01.081Z,37.68
2022-12-31T00:21:31.159Z,37.67
2022-12-31T00:22:01.262Z,37.71
2022-12-31T00:22:31.347Z,37.64
2022-12-31T00:23:01.427Z,37.65
2022-12-31T00:23:31.502Z,37.71
2022-12-31T00:24:01.601Z,37.69
2022-12-31T00:24:31.679Z,37.75
2022-12-31T00:25:01.765Z,37.72
2022-12-31T00:25:31.837Z,37.71
2022-12-31T00:26:01.922Z,37.75
2022-12-31T00:26:32.009Z,37.67
2022-12-31T00:27:02.088Z,37.72
2022-12-31T00:27:32.207Z,37.74
2022-12-31T00:28:02.294Z,37.69
2022-12-31T00:28:32.367Z,37.67
2022-12-31T00:29:02.498Z,37.67
2022-12-31T00:29:32.546Z,37.70
2022-12-31T00:30:04.966Z,37.71
2022-12-31T00:30:32.755Z,37.67
2022-12-31T00:31:02.774Z,37.73
2022-12-31T00:31:32.741Z,37.64
2022-12-31T00:32:02.837Z,37.65
2022-12-31T00:32:32.901Z,37.66
2022-12-31T00:33:03.009Z,37.67
2022-12-31T00:33:33.084Z,37.64
2022-12-31T00:34:03.174Z,37.72
2022-12-31T00:34:33.274Z,37.68
2022-12-31T00:35:03.342Z,37.70
2022-12-31T00:35:33.417Z,37.72
2022-12-31T00:36:03.506Z,37.71
2022-12-31T00:36:33.590Z,37.72
2022-12-31T00:37:03.669Z,37.75
2022-12-31T00:37:33.756Z,37.76
2022-12-31T00:38:03.862Z,37.67
2022-12-31T00:38:33.832Z,37.68
2022-12-31T00:39:03.917Z,37.72
2022-12-31T00:39:33.995Z,37.72
2022-12-31T00:40:04.077Z,37.70
2022-12-31T00:40:34.165Z,37.74
2022-12-31T00:41:04.248Z,37.67
2022-12-31T00:41:34.346Z,37.71
2022-12-31T00:42:04.367Z,37.68
2022-12-31T00:42:34.409Z,37.70
2022-12-31T00:43:04.511Z,37.73
2022-12-31T00:43:34.533Z,37.71
2022-12-31T00:44:04.567Z,37.71
2022-12-31T00:44:34.609Z,37.70
2022-12-31T00:45:04.656Z,37.70
2022-12-31T00:45:34.692Z,37.70
2022-12-31T00:46:04.803Z,37.68
2022-12-31T00:47:11.558Z,37.77
2022-12-31T00:47:41.589Z,37.78
2022-12-31T00:48:11.665Z,37.77
2022-12-31T00:48:41.709Z,37.79
2022-12-31T00:49:11.752Z,37.78
2022-12-31T00:49:41.795Z,37.79
2022-12-31T00:50:11.830Z,37.79
2022-12-31T00:50:41.894Z,37.78
2022-12-31T00:51:11.923Z,37.78
2022-12-31T00:51:41.968Z,37.76
2022-12-31T00:52:12.026Z,37.77
2022-12-31T00:52:42.082Z,37.80
2022-12-31T00:53:12.147Z,37.78
2022-12-31T00:53:42.182Z,37.76
2022-12-31T00:54:12.229Z,37.78
2022-12-31T00:54:42.283Z,37.78
2022-12-31T00:55:12.317Z,37.70
2022-12-31T00:55:42.361Z,37.72
2022-12-31T00:56:12.427Z,37.75
2022-12-31T00:56:42.449Z,37.74
2022-12-31T00:57:12.532Z,37.71
2022-12-31T00:57:42.609Z,37.71
2022-12-31T00:58:12.721Z,37.70
2022-12-31T00:58:42.808Z,37.74
2022-12-31T00:59:12.889Z,37.73
2022-12-31T00:59:42.978Z,37.81
2022-12-31T01:00:13.064Z,37.72
2022-12-31T01:00:43.145Z,37.77
2022-12-31T01:01:13.396Z,37.77
2022-12-31T01:01:43.500Z,37.74
2022-12-31T01:02:13.589Z,37.75
2022-12-31T01:02:43.743Z,37.78
2022-12-31T01:03:13.563Z,37.73
2022-12-31T01:03:43.653Z,37.74
2022-12-31T01:04:13.743Z,37.78
2022-12-31T01:04:43.814Z,37.74
2022-12-31T01:05:13.900Z,37.75
2022-12-31T01:05:43.997Z,37.77
2022-12-31T01:06:14.101Z,37.75
2022-12-31T01:06:44.180Z,37.73
2022-12-31T01:07:14.270Z,37.70
2022-12-31T01:07:44.349Z,37.74
2022-12-31T01:08:14.472Z,37.73
2022-12-31T01:08:44.537Z,37.74
2022-12-31T01:09:14.627Z,37.66
2022-12-31T01:09:44.709Z,37.73
2022-12-31T01:10:14.794Z,37.75
2022-12-31T01:10:44.887Z,37.71
2022-12-31T01:11:14.977Z,37.73
2022-12-31T01:11:45.056Z,37.73
2022-12-31T01:12:15.140Z,37.70
2022-12-31T01:12:45.220Z,37.70
2022-12-31T01:13:15.342Z,37.68
2022-12-31T01:13:45.407Z,37.67
2022-12-31T01:14:15.487Z,37.62
2022-12-31T01:14:45.576Z,37.63
2022-12-31T01:15:15.679Z,37.63
2022-12-31T01:15:45.769Z,37.69
2022-12-31T01:16:15.932Z,37.58
2022-12-31T01:16:45.925Z,37.63
2022-12-31T01:17:15.977Z,37.70
2022-12-31T01:17:46.060Z,37.70
2022-12-31T01:18:16.172Z,37.70
2022-12-31T01:18:46.243Z,37.70
2022-12-31T01:19:16.323Z,37.66
2022-12-31T01:19:46.407Z,37.68
2022-12-31T01:20:16.519Z,37.67
2022-12-31T01:20:46.590Z,37.64
2022-12-31T01:21:16.686Z,37.70
2022-12-31T01:21:46.753Z,37.73
2022-12-31T01:22:16.840Z,37.67
2022-12-31T01:22:46.935Z,37.73
2022-12-31T01:23:17.011Z,37.70
2022-12-31T01:23:47.090Z,37.73
2022-12-31T01:24:17.179Z,37.69
2022-12-31T01:24:47.268Z,37.69
2022-12-31T01:25:17.357Z,37.72
2022-12-31T01:25:47.440Z,37.68
2022-12-31T01:26:17.521Z,37.71
2022-12-31T01:26:47.607Z,37.70
2022-12-31T01:27:17.687Z,37.72
2022-12-31T01:27:47.805Z,37.69
2022-12-31T01:28:17.769Z,37.69
2022-12-31T01:28:47.875Z,37.69
2022-12-31T01:29:17.941Z,37.62
2022-12-31T01:29:48.022Z,37.70
2022-12-31T01:30:18.104Z,37.70
2022-12-31T01:30:48.238Z,37.63
2022-12-31T01:31:18.220Z,37.70
2022-12-31T01:31:48.197Z,37.67
2022-12-31T01:32:18.306Z,37.73
2022-12-31T01:32:48.294Z,37.65
2022-12-31T01:33:18.429Z,37.64
2022-12-31T01:33:48.374Z,37.73
2022-12-31T01:34:18.458Z,37.73
2022-12-31T01:34:48.545Z,37.69
2022-12-31T01:35:18.621Z,37.70
2022-12-31T01:35:48.715Z,37.74
2022-12-31T01:36:23.567Z,37.74
2022-12-31T01:36:48.866Z,37.67
2022-12-31T01:37:18.955Z,37.73
2022-12-31T01:37:49.034Z,37.69
2022-12-31T01:38:19.115Z,37.75
2022-12-31T01:38:49.200Z,37.72
2022-12-31T01:39:19.287Z,37.70
2022-12-31T01:39:49.369Z,37.76
2022-12-31T01:40:19.457Z,37.77
2022-12-31T01:40:49.538Z,37.70
2022-12-31T01:41:19.624Z,37.66
2022-12-31T01:41:49.698Z,37.63
2022-12-31T01:42:19.787Z,37.73
2022-12-31T01:42:49.869Z,37.73
2022-12-31T01:43:19.958Z,37.69
2022-12-31T01:43:50.081Z,37.73
2022-12-31T01:44:20.133Z,37.75
2022-12-31T01:44:50.213Z,37.66
2022-12-31T01:45:20.309Z,37.73
2022-12-31T01:45:50.396Z,37.70
2022-12-31T01:46:20.504Z,37.66
2022-12-31T01:46:50.515Z,37.68
2022-12-31T01:47:20.548Z,37.72
2022-12-31T01:47:50.598Z,37.73
2022-12-31T01:48:20.626Z,37.75
2022-12-31T01:48:50.676Z,37.79
2022-12-31T01:49:20.711Z,37.70
2022-12-31T01:49:50.758Z,37.76
2022-12-31T01:50:20.786Z,37.74
2022-12-31T01:50:50.823Z,37.79
2022-12-31T01:51:20.869Z,37.70
2022-12-31T01:51:50.927Z,37.72
2022-12-31T01:52:20.942Z,37.73
2022-12-31T01:52:51.009Z,37.75
2022-12-31T01:53:21.055Z,37.76
2022-12-31T01:53:51.094Z,37.75
2022-12-31T01:54:21.204Z,37.74
2022-12-31T01:54:51.208Z,37.75
2022-12-31T01:55:21.263Z,37.74
2022-12-31T01:55:51.291Z,37.75
2022-12-31T01:56:21.339Z,37.72
2022-12-31T01:56:51.384Z,37.72
2022-12-31T01:57:21.464Z,37.72
2022-12-31T01:57:51.563Z,37.72
2022-12-31T01:58:21.647Z,37.70
2022-12-31T01:58:51.734Z,37.76
2022-12-31T01:59:21.831Z,37.76
2022-12-31T01:59:51.895Z,37.72
2022-12-31T02:00:21.991Z,37.79
2022-12-31T02:00:52.078Z,37.77
2022-12-31T02:01:22.284Z,37.73
2022-12-31T02:01:52.428Z,37.76
2022-12-31T02:02:22.505Z,37.68
2022-12-31T02:02:52.519Z,37.72
2022-12-31T02:03:22.410Z,37.79
2022-12-31T02:03:52.415Z,37.73
2022-12-31T02:04:22.484Z,37.77
2022-12-31T02:04:52.567Z,37.75
2022-12-31T02:05:22.653Z,37.73
2022-12-31T02:05:52.740Z,37.77
2022-12-31T02:06:22.826Z,37.81
2022-12-31T02:06:52.933Z,37.84
2022-12-31T02:07:23.019Z,37.82
2022-12-31T02:07:53.124Z,37.83
2022-12-31T02:08:23.199Z,37.85
2022-12-31T02:08:53.273Z,37.77
2022-12-31T02:09:23.358Z,37.81
2022-12-31T02:09:53.457Z,37.85
2022-12-31T02:10:23.541Z,37.85
2022-12-31T02:10:53.615Z,37.82
2022-12-31T02:11:23.712Z,37.84
2022-12-31T02:11:53.792Z,37.82
2022-12-31T02:12:23.883Z,37.81
2022-12-31T02:12:53.970Z,37.80
2022-12-31T02:13:24.057Z,37.81
2022-12-31T02:13:58.390Z,37.81
2022-12-31T02:14:24.164Z,37.79
2022-12-31T02:14:54.225Z,37.85
2022-12-31T02:15:24.328Z,37.85
2022-12-31T02:15:54.424Z,37.82
2022-12-31T02:16:24.614Z,37.80
2022-12-31T02:16:54.600Z,37.84
2022-12-31T02:17:24.684Z,37.81
2022-12-31T02:17:54.769Z,37.77
2022-12-31T02:18:24.852Z,37.81
2022-12-31T02:18:54.934Z,37.82
2022-12-31T02:19:25.023Z,37.80
2022-12-31T02:19:55.116Z,37.81
2022-12-31T02:20:25.188Z,37.80
2022-12-31T02:20:55.269Z,37.78
2022-12-31T02:21:25.285Z,37.72
2022-12-31T02:21:55.395Z,37.76
2022-12-31T02:22:25.490Z,37.71
2022-12-31T02:22:55.595Z,37.72
2022-12-31T02:23:25.679Z,37.79
2022-12-31T02:23:55.754Z,37.79
2022-12-31T02:24:25.857Z,37.70
2022-12-31T02:24:55.947Z,37.82
2022-12-31T02:25:26.016Z,37.80
2022-12-31T02:25:56.124Z,37.76
2022-12-31T02:26:26.179Z,37.82
2022-12-31T02:26:56.269Z,37.75
2022-12-31T02:27:26.361Z,37.75
2022-12-31T02:27:56.443Z,37.82
2022-12-31T02:28:26.510Z,37.75
2022-12-31T02:28:56.592Z,37.76
2022-12-31T02:29:26.702Z,37.76
2022-12-31T02:29:56.782Z,37.76
2022-12-31T02:30:26.848Z,37.75
2022-12-31T02:30:56.987Z,37.77
2022-12-31T02:31:27.066Z,37.75
2022-12-31T02:31:57.030Z,37.76
2022-12-31T02:32:27.111Z,37.75
2022-12-31T02:32:57.193Z,37.83
2022-12-31T02:33:27.276Z,37.76
2022-12-31T02:33:57.354Z,37.76
2022-12-31T02:34:27.454Z,37.78
2022-12-31T02:34:57.537Z,37.79
2022-12-31T02:35:27.614Z,37.75
2022-12-31T02:35:57.688Z,37.76
2022-12-31T02:36:27.770Z,37.71
2022-12-31T02:36:57.878Z,37.81
2022-12-31T02:37:27.932Z,37.79
2022-12-31T02:37:58.010Z,37.79
2022-12-31T02:38:28.095Z,37.82
2022-12-31T02:38:58.175Z,37.79
2022-12-31T02:39:28.272Z,37.75
2022-12-31T02:39:58.375Z,37.73
2022-12-31T02:40:28.446Z,37.79
2022-12-31T02:40:58.509Z,37.68
2022-12-31T02:41:28.599Z,37.78
2022-12-31T02:41:58.699Z,37.76
2022-12-31T02:42:28.784Z,37.78
2022-12-31T02:42:58.872Z,37.76
2022-12-31T02:43:28.939Z,37.76
2022-12-31T02:43:59.029Z,37.80
2022-12-31T02:44:29.141Z,37.78
2022-12-31T02:44:59.205Z,37.75
2022-12-31T02:45:29.263Z,37.75
2022-12-31T02:45:59.350Z,37.78
2022-12-31T02:46:29.442Z,37.72
2022-12-31T02:46:59.497Z,37.79
2022-12-31T02:47:29.530Z,37.81
2022-12-31T02:47:59.578Z,37.76
2022-12-31T02:48:29.606Z,37.74
2022-12-31T02:48:59.643Z,37.76
2022-12-31T02:49:29.688Z,37.75
2022-12-31T02:49:59.730Z,37.79
2022-12-31T02:50:29.747Z,37.82
2022-12-31T02:50:59.777Z,37.86
2022-12-31T02:51:29.801Z,37.86
2022-12-31T02:51:59.836Z,37.83
2022-12-31T02:52:29.895Z,37.89
2022-12-31T02:52:59.937Z,37.86
2022-12-31T02:53:29.954Z,37.87
2022-12-31T02:53:59.979Z,37.83
2022-12-31T02:54:30.011Z,37.83
2022-12-31T02:55:00.093Z,37.86
2022-12-31T02:55:30.133Z,37.88
2022-12-31T02:56:00.153Z,37.90
2022-12-31T02:56:30.183Z,37.89
2022-12-31T02:57:00.265Z,37.88
2022-12-31T02:57:30.341Z,37.83
2022-12-31T02:58:00.439Z,37.94
2022-12-31T02:58:30.515Z,37.83
2022-12-31T02:59:00.603Z,37.89
2022-12-31T02:59:30.682Z,37.91
2022-12-31T03:00:00.805Z,37.93
2022-12-31T03:00:30.912Z,37.89
2022-12-31T03:01:01.109Z,37.91
2022-12-31T03:01:31.066Z,37.84
2022-12-31T03:02:01.237Z,37.86
2022-12-31T03:02:31.228Z,37.83
2022-12-31T03:03:01.119Z,37.91
2022-12-31T03:03:31.220Z,37.88
2022-12-31T03:04:01.290Z,37.90
2022-12-31T03:04:31.377Z,37.86
2022-12-31T03:05:01.486Z,37.86
2022-12-31T03:05:31.547Z,37.86
2022-12-31T03:06:01.629Z,37.83
2022-12-31T03:06:31.717Z,37.82
2022-12-31T03:07:01.806Z,37.87
2022-12-31T03:07:31.924Z,37.83
2022-12-31T03:08:01.988Z,37.84
2022-12-31T03:08:32.080Z,37.86
2022-12-31T03:09:02.172Z,37.78
2022-12-31T03:09:32.252Z,37.85
2022-12-31T03:10:02.345Z,37.89
2022-12-31T03:10:32.430Z,37.90
2022-12-31T03:11:02.506Z,37.82
2022-12-31T03:11:32.583Z,37.80
2022-12-31T03:12:02.688Z,37.79
2022-12-31T03:12:32.772Z,37.82
2022-12-31T03:13:02.858Z,37.85
2022-12-31T03:13:32.953Z,37.83
2022-12-31T03:14:03.043Z,37.85
2022-12-31T03:14:33.130Z,37.84
2022-12-31T03:15:03.227Z,37.85
2022-12-31T03:15:33.339Z,37.88
2022-12-31T03:16:03.431Z,37.82
2022-12-31T03:16:33.426Z,37.80
2022-12-31T03:17:03.510Z,37.84
2022-12-31T03:17:33.590Z,37.81
2022-12-31T03:18:03.691Z,37.86
2022-12-31T03:18:33.754Z,37.82
2022-12-31T03:19:03.844Z,37.78
2022-12-31T03:19:33.922Z,37.85
2022-12-31T03:20:04.004Z,37.75
2022-12-31T03:20:34.099Z,37.85
2022-12-31T03:21:04.193Z,37.82
2022-12-31T03:21:34.260Z,37.84
2022-12-31T03:22:04.362Z,37.84
2022-12-31T03:22:34.442Z,37.86
2022-12-31T03:23:04.520Z,37.85
2022-12-31T03:23:34.632Z,37.89
2022-12-31T03:24:04.598Z,37.78
2022-12-31T03:24:34.676Z,37.89
2022-12-31T03:25:04.769Z,37.89
2022-12-31T03:25:34.770Z,37.86
2022-12-31T03:26:04.866Z,37.82
2022-12-31T03:26:34.936Z,37.89
2022-12-31T03:27:05.029Z,37.87
2022-12-31T03:27:35.102Z,37.86
2022-12-31T03:28:05.248Z,37.84
2022-12-31T03:28:35.210Z,37.90
2022-12-31T03:29:05.286Z,37.90
2022-12-31T03:29:35.365Z,37.91
2022-12-31T03:30:05.448Z,37.90
2022-12-31T03:30:35.538Z,37.93
2022-12-31T03:31:05.694Z,37.85
2022-12-31T03:31:35.726Z,37.85
2022-12-31T03:32:05.689Z,37.82
2022-12-31T03:32:35.773Z,37.88
2022-12-31T03:33:05.861Z,37.80
2022-12-31T03:33:35.951Z,37.80
2022-12-31T03:34:06.020Z,37.83
2022-12-31T03:34:36.106Z,37.83
2022-12-31T03:35:06.178Z,37.86
2022-12-31T03:35:36.279Z,37.83
2022-12-31T03:36:06.352Z,37.81
2022-12-31T03:36:36.427Z,37.83
2022-12-31T03:37:06.523Z,37.83
2022-12-31T03:37:36.582Z,37.86
2022-12-31T03:38:06.692Z,37.82
2022-12-31T03:38:36.767Z,37.85
2022-12-31T03:39:06.865Z,37.88
2022-12-31T03:39:36.933Z,37.85
2022-12-31T03:40:07.026Z,37.88
2022-12-31T03:40:37.111Z,37.86
2022-12-31T03:41:07.193Z,37.85
2022-12-31T03:41:37.292Z,37.88
2022-12-31T03:42:07.373Z,37.83
2022-12-31T03:42:37.467Z,37.85
2022-12-31T03:43:07.598Z,37.84
2022-12-31T03:43:37.558Z,37.86
2022-12-31T03:44:07.634Z,37.89
2022-12-31T03:44:37.725Z,37.91
2022-12-31T03:45:07.824Z,37.89
2022-12-31T03:45:37.997Z,37.92
2022-12-31T03:46:08.067Z,37.90
2022-12-31T03:46:38.007Z,37.88
2022-12-31T03:47:08.051Z,37.88
2022-12-31T03:47:38.087Z,37.94
2022-12-31T03:48:08.143Z,37.83
2022-12-31T03:48:38.206Z,37.85
2022-12-31T03:49:08.239Z,37.86
2022-12-31T03:49:38.278Z,37.87
2022-12-31T03:50:08.306Z,37.85
2022-12-31T03:50:38.349Z,37.87
2022-12-31T03:51:08.392Z,37.87
2022-12-31T03:51:38.426Z,37.88
2022-12-31T03:52:08.467Z,37.90
2022-12-31T03:52:38.519Z,37.86
2022-12-31T03:53:08.569Z,37.87
2022-12-31T03:53:38.630Z,37.81
2022-12-31T03:54:08.673Z,37.88
2022-12-31T03:54:38.711Z,37.85
2022-12-31T03:55:08.746Z,37.83
2022-12-31T03:55:38.770Z,37.84
2022-12-31T03:56:08.811Z,37.89
2022-12-31T03:56:38.856Z,37.94
2022-12-31T03:57:08.938Z,37.87
2022-12-31T03:57:39.035Z,37.83
2022-12-31T03:58:09.155Z,37.86
2022-12-31T03:58:39.108Z,37.83
2022-12-31T03:59:09.180Z,37.87
2022-12-31T03:59:39.279Z,37.89
2022-12-31T04:00:09.355Z,37.90
2022-12-31T04:00:39.559Z,37.92
2022-12-31T04:01:09.662Z,37.91
2022-12-31T04:01:39.692Z,37.91
2022-12-31T04:02:09.722Z,37.90
2022-12-31T04:02:39.700Z,37.88
2022-12-31T04:03:09.728Z,37.87
2022-12-31T04:03:39.687Z,37.83
2022-12-31T04:04:09.755Z,37.83
2022-12-31T04:04:39.851Z,37.85
2022-12-31T04:05:09.947Z,37.86
2022-12-31T04:05:40.018Z,37.86
2022-12-31T04:06:10.106Z,37.87
2022-12-31T04:06:40.181Z,37.95
2022-12-31T04:07:10.280Z,37.85
2022-12-31T04:07:40.354Z,37.94
2022-12-31T04:08:10.457Z,37.91
2022-12-31T04:08:40.540Z,37.90
2022-12-31T04:09:10.645Z,37.90
2022-12-31T04:09:40.716Z,37.84
2022-12-31T04:10:10.796Z,37.90
2022-12-31T04:10:40.894Z,37.85
2022-12-31T04:11:13.657Z,37.91
2022-12-31T04:11:41.042Z,37.90
2022-12-31T04:12:11.112Z,37.91
2022-12-31T04:12:41.210Z,37.90
2022-12-31T04:13:11.312Z,37.88
2022-12-31T04:13:41.382Z,37.94
2022-12-31T04:14:11.478Z,37.89
2022-12-31T04:14:41.539Z,37.93
2022-12-31T04:15:11.638Z,37.87
2022-12-31T04:15:41.708Z,37.87
2022-12-31T04:16:11.886Z,37.91
2022-12-31T04:16:41.918Z,37.97
2022-12-31T04:17:11.870Z,37.94
2022-12-31T04:17:41.966Z,37.88
2022-12-31T04:18:12.059Z,37.99
2022-12-31T04:18:42.152Z,37.92
2022-12-31T04:19:12.229Z,38.00
2022-12-31T04:19:42.317Z,37.87
2022-12-31T04:20:12.390Z,37.92
2022-12-31T04:20:42.485Z,37.97
2022-12-31T04:21:12.560Z,37.94
2022-12-31T04:21:42.644Z,37.94
2022-12-31T04:22:12.729Z,37.94
2022-12-31T04:22:42.808Z,37.95
2022-12-31T04:23:12.905Z,37.91
2022-12-31T04:23:42.988Z,37.95
2022-12-31T04:24:13.071Z,37.97
2022-12-31T04:24:43.144Z,37.94
2022-12-31T04:25:13.238Z,37.95
2022-12-31T04:25:43.327Z,37.97
2022-12-31T04:26:13.434Z,37.95
2022-12-31T04:26:43.488Z,37.97
2022-12-31T04:27:13.587Z,37.95
2022-12-31T04:27:43.939Z,37.90
2022-12-31T04:28:13.862Z,37.94
2022-12-31T04:28:43.813Z,37.91
2022-12-31T04:29:13.892Z,37.91
2022-12-31T04:29:43.954Z,37.91
2022-12-31T04:30:14.147Z,37.98
2022-12-31T04:30:44.142Z,37.98
2022-12-31T04:31:14.254Z,37.91
2022-12-31T04:31:44.356Z,37.94
2022-12-31T04:32:14.331Z,37.94
2022-12-31T04:32:44.411Z,37.96
2022-12-31T04:33:14.497Z,37.97
2022-12-31T04:33:44.574Z,37.98
2022-12-31T04:34:14.648Z,37.95
2022-12-31T04:34:44.742Z,37.93
2022-12-31T04:35:14.826Z,37.94
2022-12-31T04:35:44.898Z,37.92
2022-12-31T04:36:14.977Z,37.96
2022-12-31T04:36:45.055Z,37.89
2022-12-31T04:37:15.138Z,37.90
2022-12-31T04:37:45.205Z,37.93
2022-12-31T04:38:15.309Z,37.90
2022-12-31T04:38:45.380Z,37.87
2022-12-31T04:39:15.468Z,37.93
2022-12-31T04:39:45.540Z,37.91
2022-12-31T04:40:15.621Z,38.00
2022-12-31T04:40:45.707Z,37.91
2022-12-31T04:41:15.705Z,37.94
2022-12-31T04:41:45.795Z,37.91
2022-12-31T04:42:15.915Z,37.97
2022-12-31T04:42:45.877Z,37.92
2022-12-31T04:43:15.954Z,37.95
2022-12-31T04:43:46.049Z,37.98
2022-12-31T04:44:16.129Z,37.94
2022-12-31T04:44:46.216Z,37.94
2022-12-31T04:45:16.316Z,37.94
2022-12-31T04:45:46.425Z,37.94
2022-12-31T04:46:16.519Z,37.86
2022-12-31T04:46:46.618Z,37.94
2022-12-31T04:47:21.823Z,37.97
2022-12-31T04:47:46.684Z,37.93
2022-12-31T04:48:16.757Z,37.97
2022-12-31T04:48:46.787Z,37.94
2022-12-31T04:49:16.832Z,37.93
2022-12-31T04:49:46.917Z,37.91
2022-12-31T04:50:16.959Z,37.95
2022-12-31T04:50:46.995Z,37.97
2022-12-31T04:51:17.036Z,37.96
2022-12-31T04:51:47.066Z,37.98
2022-12-31T04:52:17.139Z,37.97
2022-12-31T04:52:47.190Z,37.95
2022-12-31T04:53:17.221Z,37.97
2022-12-31T04:53:47.281Z,37.90
2022-12-31T04:54:17.308Z,37.94
2022-12-31T04:54:47.347Z,37.91
2022-12-31T04:55:17.394Z,37.97
2022-12-31T04:55:47.434Z,37.95
2022-12-31T04:56:17.465Z,37.94
2022-12-31T04:56:47.532Z,37.95
2022-12-31T04:57:17.616Z,37.93
2022-12-31T04:57:47.703Z,37.90
2022-12-31T04:58:17.780Z,37.95
2022-12-31T04:58:47.864Z,37.93
2022-12-31T04:59:17.960Z,38.03
2022-12-31T04:59:48.054Z,37.89
2022-12-31T05:00:18.138Z,37.97
2022-12-31T05:00:48.258Z,37.99
2022-12-31T05:01:18.339Z,37.97
2022-12-31T05:01:48.430Z,37.97
2022-12-31T05:02:18.687Z,37.93
2022-12-31T05:02:48.795Z,37.96
2022-12-31T05:03:18.686Z,37.96
2022-12-31T05:03:48.673Z,37.90
2022-12-31T05:04:18.760Z,37.93
2022-12-31T05:04:48.836Z,38.00
2022-12-31T05:05:18.930Z,37.96
2022-12-31T05:05:49.023Z,38.00
2022-12-31T05:06:19.100Z,37.96
2022-12-31T05:06:49.184Z,37.97
2022-12-31T05:07:19.279Z,38.00
2022-12-31T05:07:49.353Z,37.96
2022-12-31T05:08:19.432Z,37.93
2022-12-31T05:08:49.516Z,38.02
2022-12-31T05:09:19.595Z,37.97
2022-12-31T05:09:49.686Z,37.97
2022-12-31T05:10:19.781Z,38.01
2022-12-31T05:10:49.847Z,37.93
2022-12-31T05:11:19.937Z,38.04
2022-12-31T05:11:50.032Z,38.01
2022-12-31T05:12:20.118Z,37.97
2022-12-31T05:12:50.199Z,38.01
2022-12-31T05:13:20.284Z,37.98
2022-12-31T05:13:50.395Z,38.00
2022-12-31T05:14:20.450Z,37.98
2022-12-31T05:14:50.538Z,37.97
2022-12-31T05:15:20.628Z,37.97
2022-12-31T05:15:50.715Z,38.00
2022-12-31T05:16:20.839Z,37.98
2022-12-31T05:16:50.880Z,37.89
2022-12-31T05:17:20.950Z,38.04
2022-12-31T05:17:50.894Z,38.02
2022-12-31T05:18:20.994Z,37.97
2022-12-31T05:18:51.079Z,38.00
2022-12-31T05:19:21.161Z,38.02
2022-12-31T05:19:51.243Z,37.97
2022-12-31T05:20:21.318Z,37.99
2022-12-31T05:20:51.401Z,37.99
2022-12-31T05:21:21.504Z,37.93
2022-12-31T05:21:51.565Z,38.02
2022-12-31T05:22:21.649Z,37.96
2022-12-31T05:22:51.740Z,37.99
2022-12-31T05:23:21.826Z,37.98
2022-12-31T05:23:51.898Z,38.01
2022-12-31T05:24:21.991Z,38.03
2022-12-31T05:24:52.084Z,37.93
2022-12-31T05:25:22.163Z,38.02
2022-12-31T05:25:52.243Z,37.96
2022-12-31T05:26:22.337Z,37.89
2022-12-31T05:26:52.425Z,38.01
2022-12-31T05:27:22.503Z,37.96
2022-12-31T05:27:52.588Z,38.01
2022-12-31T05:28:22.684Z,37.92
2022-12-31T05:28:52.764Z,37.99
2022-12-31T05:29:22.860Z,38.02
2022-12-31T05:29:52.947Z,37.99
2022-12-31T05:30:23.012Z,37.95
2022-12-31T05:30:53.265Z,37.99
2022-12-31T05:31:23.178Z,37.94
2022-12-31T05:31:53.231Z,37.99
2022-12-31T05:32:23.355Z,37.97
2022-12-31T05:32:53.407Z,37.96
2022-12-31T05:33:23.519Z,38.03
2022-12-31T05:33:53.574Z,38.02
2022-12-31T05:34:23.674Z,37.95
2022-12-31T05:34:53.757Z,38.00
2022-12-31T05:35:23.738Z,37.98
2022-12-31T05:35:53.806Z,37.97
2022-12-31T05:36:23.907Z,38.02
2022-12-31T05:36:53.995Z,37.99
2022-12-31T05:37:24.066Z,38.00
2022-12-31T05:37:54.166Z,38.02
2022-12-31T05:38:24.236Z,37.99
2022-12-31T05:38:54.305Z,38.02
2022-12-31T05:39:24.377Z,37.95
2022-12-31T05:39:54.466Z,37.98
2022-12-31T05:40:24.547Z,38.01
2022-12-31T05:40:54.620Z,38.05
2022-12-31T05:41:24.705Z,37.98
2022-12-31T05:41:54.795Z,38.01
2022-12-31T05:42:24.867Z,38.05
2022-12-31T05:42:54.871Z,37.99
2022-12-31T05:43:24.949Z,38.01
2022-12-31T05:43:55.029Z,38.03
2022-12-31T05:44:25.097Z,38.04
2022-12-31T05:44:55.159Z,38.06
2022-12-31T05:45:30.331Z,38.03
2022-12-31T05:45:55.355Z,38.03
2022-12-31T05:46:25.335Z,38.03
2022-12-31T05:46:55.415Z,38.07
2022-12-31T05:47:25.474Z,38.01
2022-12-31T05:47:55.479Z,38.05
2022-12-31T05:48:25.514Z,38.05
2022-12-31T05:48:55.546Z,38.02
2022-12-31T05:49:25.575Z,38.03
2022-12-31T05:49:55.627Z,38.05
2022-12-31T05:50:25.632Z,37.98
2022-12-31T05:50:55.658Z,38.05
2022-12-31T05:51:25.688Z,38.04
2022-12-31T05:51:55.739Z,38.06
2022-12-31T05:52:25.771Z,38.02
2022-12-31T05:52:55.830Z,38.10
2022-12-31T05:53:25.867Z,37.99
2022-12-31T05:53:55.895Z,38.08
2022-12-31T05:54:25.933Z,38.01
2022-12-31T05:54:55.992Z,38.06
2022-12-31T05:55:26.024Z,38.07
2022-12-31T05:55:56.049Z,38.05
2022-12-31T05:56:26.097Z,37.99
2022-12-31T05:56:56.154Z,38.07
2022-12-31T05:57:26.258Z,38.03
2022-12-31T05:57:56.292Z,38.00
2022-12-31T05:58:26.260Z,38.08
2022-12-31T05:58:56.299Z,38.05
2022-12-31T05:59:26.282Z,38.06
2022-12-31T05:59:56.345Z,37.99
2022-12-31T06:00:26.434Z,38.02
2022-12-31T06:00:56.658Z,38.03
2022-12-31T06:01:26.669Z,38.01
2022-12-31T06:01:56.573Z,37.99
2022-12-31T06:02:26.742Z,38.06
2022-12-31T06:02:56.869Z,38.06
2022-12-31T06:03:26.831Z,38.07
2022-12-31T06:03:56.873Z,38.02
2022-12-31T06:04:26.827Z,37.99
2022-12-31T06:04:56.902Z,38.02
2022-12-31T06:05:26.976Z,37.98
2022-12-31T06:05:57.066Z,38.06
2022-12-31T06:06:27.143Z,38.08
2022-12-31T06:06:57.215Z,38.12
2022-12-31T06:07:27.297Z,38.03
2022-12-31T06:07:57.386Z,38.10
2022-12-31T06:08:27.462Z,38.08
2022-12-31T06:08:57.545Z,38.02
2022-12-31T06:09:27.624Z,38.03
2022-12-31T06:09:57.707Z,38.08
2022-12-31T06:10:27.779Z,38.06
2022-12-31T06:10:57.869Z,38.03
2022-12-31T06:11:27.944Z,38.04
2022-12-31T06:11:58.062Z,38.01
2022-12-31T06:12:28.114Z,38.08
2022-12-31T06:12:58.210Z,37.97
2022-12-31T06:13:28.288Z,38.03
2022-12-31T06:13:58.392Z,37.99
2022-12-31T06:14:28.465Z,37.98
2022-12-31T06:14:58.533Z,38.05
2022-12-31T06:15:28.616Z,38.09
2022-12-31T06:15:58.794Z,38.06
2022-12-31T06:16:28.783Z,38.06
2022-12-31T06:16:58.871Z,38.08
2022-12-31T06:17:28.961Z,38.10
2022-12-31T06:17:59.054Z,38.09
2022-12-31T06:18:29.150Z,38.05
2022-12-31T06:18:59.218Z,38.06
2022-12-31T06:19:29.281Z,38.06
2022-12-31T06:19:59.368Z,38.08
2022-12-31T06:20:29.453Z,38.09
2022-12-31T06:20:59.522Z,38.08
2022-12-31T06:21:29.614Z,38.05
2022-12-31T06:21:59.696Z,38.08
2022-12-31T06:22:29.765Z,38.10
2022-12-31T06:22:59.878Z,38.00
2022-12-31T06:23:29.961Z,38.07
2022-12-31T06:24:00.042Z,38.05
2022-12-31T06:24:30.127Z,38.02
2022-12-31T06:25:00.204Z,38.03
2022-12-31T06:25:30.276Z,38.09
2022-12-31T06:26:00.367Z,37.97
2022-12-31T06:26:30.442Z,38.01
2022-12-31T06:27:00.530Z,38.07
2022-12-31T06:27:30.593Z,37.99
2022-12-31T06:28:00.693Z,38.02